Time;durP1;ratioP1;P1;durP2;ratioP2;P2;SDS_P1;SDS_P2;PMS_P1;PMS_P2;Temp;Humidity;BMP_temperature;BMP_pressure;BME280_temperature;BME280_humidity;BME280_pressure;Samples;Min_cycle;Max_cycle;Signal;HPM_P1;HPM_P2
2023/09/28 00:01:37;;;;;;;13.13;9.77;;;;;;;17.23;81.02;100885.69;5038627;28;20199;-74
2023/09/28 00:04:06;;;;;;;11.67;9.23;;;;;;;17.24;81.10;100896.31;5035741;28;20258;-74
2023/09/28 00:06:35;;;;;;;11.37;9.73;;;;;;;17.16;81.42;100892.91;5036055;28;20210;-74
2023/09/28 00:09:04;;;;;;;9.73;8.30;;;;;;;17.13;81.17;100887.91;5035444;28;20559;-74
2023/09/28 00:11:31;;;;;;;10.30;8.43;;;;;;;17.15;81.35;100892.09;5035662;28;20280;-74
2023/09/28 00:14:01;;;;;;;11.90;8.30;;;;;;;17.07;81.46;100883.31;5035517;28;20235;-74
2023/09/28 00:16:29;;;;;;;9.87;8.80;;;;;;;17.10;81.79;100880.19;5035589;28;20301;-74
2023/09/28 00:18:58;;;;;;;9.63;8.63;;;;;;;17.13;81.71;100887.91;5035508;28;20209;-74
2023/09/28 00:21:26;;;;;;;8.33;7.63;;;;;;;17.14;81.12;100886.88;5035461;28;20214;-74
2023/09/28 00:23:54;;;;;;;9.73;8.73;;;;;;;17.08;81.35;100890.41;5035143;28;20230;-74
2023/09/28 00:26:22;;;;;;;11.17;9.03;;;;;;;17.10;81.89;100882.91;5035407;28;20206;-74
2023/09/28 00:28:51;;;;;;;9.13;8.00;;;;;;;17.16;81.47;100892.91;5035423;28;20209;-74
2023/09/28 00:31:20;;;;;;;12.73;8.23;;;;;;;17.10;81.84;100886.44;5035346;28;20302;-74
2023/09/28 00:33:48;;;;;;;8.73;7.83;;;;;;;17.05;81.58;100877.28;5035052;28;20592;-74
2023/09/28 00:36:16;;;;;;;9.20;8.30;;;;;;;17.00;81.59;100888.69;5034539;28;20309;-74
2023/09/28 00:38:47;;;;;;;10.43;8.60;;;;;;;16.94;82.30;100886.78;5035175;28;20210;-74
2023/09/28 00:41:14;;;;;;;9.70;8.70;;;;;;;16.94;82.90;100885.94;5035050;28;20560;-74
2023/09/28 00:43:44;;;;;;;9.30;8.40;;;;;;;16.92;82.32;100885.31;5034655;28;20662;-74
2023/09/28 00:46:16;;;;;;;10.03;8.50;;;;;;;16.89;83.16;100881.09;5035034;28;20242;-73
2023/09/28 00:48:55;;;;;;;10.20;9.20;;;;;;;16.84;82.70;100877.34;5034961;28;20245;-73
2023/09/28 00:51:25;;;;;;;10.47;8.37;;;;;;;16.80;82.52;100878.75;5034944;28;20283;-74
2023/09/28 00:53:56;;;;;;;9.67;8.77;;;;;;;16.83;82.50;100876.50;5035600;28;20277;-74
2023/09/28 00:56:24;;;;;;;12.10;8.83;;;;;;;16.75;82.31;100867.72;5035245;28;20202;-75
2023/09/28 00:58:57;;;;;;;9.87;8.80;;;;;;;16.69;82.66;100870.16;5034445;28;20210;-75
2023/09/28 01:01:29;;;;;;;10.87;8.97;;;;;;;16.79;83.26;100863.56;5034744;28;20246;-75
2023/09/28 01:04:04;;;;;;;10.00;8.50;;;;;;;16.85;82.23;100857.38;5034605;28;20293;-75
2023/09/28 01:06:35;;;;;;;11.03;8.90;;;;;;;16.84;81.54;100848.44;5034604;28;20269;-75
2023/09/28 01:09:06;;;;;;;8.47;7.63;;;;;;;16.86;81.41;100848.22;5034327;28;20562;-75
2023/09/28 01:11:36;;;;;;;9.50;8.50;;;;;;;16.82;80.93;100846.94;5034571;28;20252;-75
2023/09/28 01:14:04;;;;;;;9.77;8.10;;;;;;;16.80;80.34;100841.75;5034295;28;20321;-74
2023/09/28 01:16:33;;;;;;;11.70;8.93;;;;;;;16.73;81.70;100836.28;5034432;28;20203;-75
2023/09/28 01:19:02;;;;;;;11.80;8.57;;;;;;;16.71;81.93;100830.22;5034522;28;20206;-75
2023/09/28 01:21:31;;;;;;;9.37;8.03;;;;;;;16.68;81.14;100827.94;5034283;28;20209;-75
2023/09/28 01:24:00;;;;;;;10.00;8.00;;;;;;;16.66;82.21;100816.50;5034323;28;20576;-75
2023/09/28 01:26:31;;;;;;;9.93;8.47;;;;;;;16.66;81.87;100832.72;5033919;28;20665;-75
2023/09/28 01:28:59;;;;;;;13.77;8.27;;;;;;;16.66;81.92;100838.13;5034218;28;20278;-75
2023/09/28 01:31:28;;;;;;;12.03;8.87;;;;;;;16.62;81.50;100839.53;5034116;28;20214;-74
2023/09/28 01:33:55;;;;;;;9.50;8.47;;;;;;;16.63;81.80;100835.81;5033974;28;20234;-75
2023/09/28 01:36:24;;;;;;;11.23;8.73;;;;;;;16.54;82.22;100836.94;5034051;28;20297;-75
2023/09/28 01:38:58;;;;;;;9.83;8.77;;;;;;;16.52;82.85;100838.16;5034033;28;20238;-75
2023/09/28 01:41:27;;;;;;;9.93;8.73;;;;;;;16.52;83.27;100820.09;5033688;28;20621;-74
2023/09/28 01:43:55;;;;;;;10.00;9.10;;;;;;;16.52;82.79;100825.50;5033862;28;20281;-75
2023/09/28 01:46:24;;;;;;;13.83;9.57;;;;;;;16.53;83.67;100815.53;5033804;28;20249;-75
2023/09/28 01:48:51;;;;;;;10.97;9.70;;;;;;;16.51;83.96;100807.59;5033090;28;20234;-75
2023/09/28 01:51:22;;;;;;;11.70;8.37;;;;;;;16.51;84.35;100801.34;5033802;28;20238;-75
2023/09/28 01:53:50;;;;;;;9.93;8.90;;;;;;;16.53;83.37;100799.31;5033355;28;20238;-75
2023/09/28 01:56:18;;;;;;;10.30;9.17;;;;;;;16.51;83.84;100791.38;5033744;28;20246;-75
2023/09/28 01:58:47;;;;;;;10.40;9.30;;;;;;;16.51;83.46;100783.28;5033429;28;20297;-75
2023/09/28 02:01:22;;;;;;;10.80;8.93;;;;;;;16.51;83.90;100775.16;5033727;28;20207;-75
2023/09/28 02:03:50;;;;;;;9.50;8.50;;;;;;;16.50;83.41;100787.03;5033663;28;20253;-75
2023/09/28 02:06:19;;;;;;;9.30;8.17;;;;;;;16.52;82.64;100795.78;5033271;28;20644;-75
2023/09/28 02:08:47;;;;;;;9.60;8.13;;;;;;;16.51;82.90;100801.34;5033553;28;20297;-75
2023/09/28 02:11:15;;;;;;;10.43;8.93;;;;;;;16.48;83.18;100797.19;5033572;28;20302;-75
2023/09/28 02:13:44;;;;;;;9.90;8.80;;;;;;;16.49;83.97;100811.53;5033380;28;20237;-75
2023/09/28 02:16:14;;;;;;;10.17;8.73;;;;;;;16.49;83.65;100817.78;5033470;28;20261;-75
2023/09/28 02:18:42;;;;;;;12.17;8.63;;;;;;;16.47;83.78;100833.34;5033513;28;20256;-75
2023/09/28 02:21:15;;;;;;;10.10;8.27;;;;;;;16.38;83.10;100834.53;5033511;28;20233;-75
2023/09/28 02:23:43;;;;;;;11.83;8.53;;;;;;;16.37;83.43;100823.94;5033249;28;20270;-75
2023/09/28 02:26:11;;;;;;;12.67;8.73;;;;;;;16.33;83.58;100820.78;5033386;28;20241;-75
2023/09/28 02:28:39;;;;;;;9.20;8.30;;;;;;;16.35;84.20;100837.63;5033607;28;20218;-75
2023/09/28 02:31:08;;;;;;;11.23;8.47;;;;;;;16.35;84.61;100842.19;5033421;28;20209;-75
2023/09/28 02:33:38;;;;;;;10.77;8.93;;;;;;;16.33;83.40;100836.16;5033190;28;20289;-75
2023/09/28 02:36:06;;;;;;;9.80;8.80;;;;;;;16.27;85.01;100859.38;5033000;28;20206;-75
2023/09/28 02:38:34;;;;;;;9.33;8.20;;;;;;;16.26;85.17;100857.72;5032944;28;20230;-75
2023/09/28 02:41:02;;;;;;;10.63;8.27;;;;;;;16.30;84.61;100842.78;5032976;28;20222;-75
2023/09/28 02:43:31;;;;;;;9.50;8.30;;;;;;;16.21;83.83;100843.94;5033173;28;20227;-75
2023/09/28 02:45:59;;;;;;;9.97;8.87;;;;;;;16.19;84.92;100851.41;5032867;28;20242;-75
2023/09/28 02:48:29;;;;;;;10.43;8.87;;;;;;;16.20;84.23;100842.25;5033167;28;20207;-76
2023/09/28 02:50:58;;;;;;;10.63;8.43;;;;;;;16.10;84.79;100836.34;5031655;28;20293;-75
2023/09/28 02:53:26;;;;;;;8.87;8.07;;;;;;;16.11;84.58;100836.19;5033003;28;20227;-75
2023/09/28 02:55:55;;;;;;;9.73;7.87;;;;;;;16.08;85.73;100833.03;5033165;28;20253;-75
2023/09/28 02:58:24;;;;;;;9.03;8.07;;;;;;;16.09;85.45;100827.44;5033348;28;20215;-75
2023/09/28 03:00:55;;;;;;;10.40;8.37;;;;;;;16.12;84.93;100834.31;5036712;28;20210;-75
2023/09/28 03:03:23;;;;;;;10.03;8.43;;;;;;;16.11;84.33;100828.06;5036644;28;20258;-75
2023/09/28 03:05:55;;;;;;;10.40;8.60;;;;;;;16.14;85.25;100832.25;5036911;28;20203;-75
2023/09/28 03:08:24;;;;;;;10.53;8.57;;;;;;;16.17;85.32;100831.84;5036642;28;20701;-75
2023/09/28 03:10:53;;;;;;;10.40;8.90;;;;;;;16.17;84.96;100826.44;5036833;28;20203;-75
2023/09/28 03:13:20;;;;;;;9.87;8.60;;;;;;;16.05;85.79;100828.00;5036719;28;20252;-75
2023/09/28 03:15:49;;;;;;;9.73;8.73;;;;;;;16.06;85.33;100832.41;5036629;28;20231;-75
2023/09/28 03:18:16;;;;;;;12.00;9.13;;;;;;;16.07;84.96;100832.19;5036398;28;20768;-75
2023/09/28 03:20:48;;;;;;;10.30;8.37;;;;;;;16.06;85.58;100824.28;5036704;28;20191;-75
2023/09/28 03:23:16;;;;;;;9.47;8.17;;;;;;;16.04;85.58;100824.47;5036284;28;20235;-75
2023/09/28 03:25:47;;;;;;;10.37;9.27;;;;;;;16.01;84.95;100824.03;5036279;28;20711;-75
2023/09/28 03:28:14;;;;;;;10.77;9.17;;;;;;;15.99;84.84;100832.31;5036791;28;20213;-75
2023/09/28 03:30:43;;;;;;;12.40;9.63;;;;;;;15.99;85.31;100835.00;5036432;28;20217;-75
2023/09/28 03:33:10;;;;;;;9.97;8.97;;;;;;;15.97;86.11;100838.94;5036344;28;20318;-75
2023/09/28 03:35:39;;;;;;;10.07;9.03;;;;;;;15.99;85.10;100835.00;5036307;28;20237;-75
2023/09/28 03:38:07;;;;;;;10.63;9.63;;;;;;;16.00;85.80;100835.84;5036031;28;20213;-75
2023/09/28 03:40:36;;;;;;;10.93;9.77;;;;;;;15.97;85.23;100825.44;5036300;28;20203;-75
2023/09/28 03:43:04;;;;;;;10.90;9.40;;;;;;;15.94;85.18;100820.44;5036176;28;20206;-75
2023/09/28 03:45:33;;;;;;;12.27;9.73;;;;;;;15.96;86.03;100821.09;5035898;28;20236;-75
2023/09/28 03:48:02;;;;;;;11.77;9.83;;;;;;;15.95;86.26;100816.69;5036156;28;20289;-75
2023/09/28 03:50:30;;;;;;;16.03;9.90;;;;;;;15.95;85.92;100816.69;5036098;28;20214;-75
2023/09/28 03:52:59;;;;;;;11.17;10.07;;;;;;;15.96;85.50;100812.97;5036031;28;20218;-75
2023/09/28 03:55:28;;;;;;;11.83;9.87;;;;;;;15.94;85.78;100805.06;5035959;28;20281;-75
2023/09/28 03:58:00;;;;;;;13.93;10.40;;;;;;;15.96;86.23;100807.59;5036005;28;20310;-75
2023/09/28 04:00:30;;;;;;;11.80;10.60;;;;;;;15.93;86.19;100807.94;5035628;28;20191;-75
2023/09/28 04:02:59;;;;;;;11.43;10.27;;;;;;;15.92;86.18;100806.28;5035881;28;20210;-75
2023/09/28 04:05:27;;;;;;;14.80;10.37;;;;;;;15.90;86.01;100813.72;5036004;28;20207;-75
2023/09/28 04:07:56;;;;;;;12.27;10.53;;;;;;;15.89;86.21;100823.69;5035170;28;20301;-75
2023/09/28 04:10:25;;;;;;;15.70;10.43;;;;;;;15.83;87.02;100819.06;5034563;28;20253;-75
2023/09/28 04:12:53;;;;;;;11.70;10.50;;;;;;;15.80;86.93;100814.06;5036452;28;20236;-75
2023/09/28 04:15:23;;;;;;;12.20;10.90;;;;;;;15.82;87.07;100811.19;5035180;28;20258;-75
2023/09/28 04:17:53;;;;;;;15.47;10.67;;;;;;;15.82;85.68;100811.19;5035204;28;20222;-75
2023/09/28 04:20:21;;;;;;;12.30;10.17;;;;;;;15.76;85.81;100811.94;5035538;28;20210;-75
2023/09/28 04:22:50;;;;;;;11.43;10.10;;;;;;;15.75;85.47;100815.69;5035263;28;20214;-75
2023/09/28 04:25:21;;;;;;;12.27;9.63;;;;;;;15.76;86.64;100820.03;5035221;28;20707;-75
2023/09/28 04:27:49;;;;;;;12.47;10.03;;;;;;;15.74;86.30;100828.34;5035100;28;20210;-75
2023/09/28 04:30:18;;;;;;;11.17;10.03;;;;;;;15.73;86.15;100819.41;5035397;28;20207;-75
2023/09/28 04:32:52;;;;;;;13.03;10.30;;;;;;;15.76;87.13;100828.13;5035298;28;20203;-75
2023/09/28 04:35:20;;;;;;;13.33;11.67;;;;;;;15.68;88.64;100832.63;5035237;28;20225;-75
2023/09/28 04:37:49;;;;;;;14.20;11.43;;;;;;;15.59;89.52;100827.53;5034926;28;20687;-75
2023/09/28 04:40:24;;;;;;;13.57;11.47;;;;;;;15.60;89.74;100835.44;5035219;28;20206;-75
2023/09/28 04:42:53;;;;;;;13.13;11.23;;;;;;;15.60;88.32;100832.75;5035344;28;20270;-75
2023/09/28 04:45:22;;;;;;;12.53;10.73;;;;;;;15.62;89.03;100833.38;5035076;28;20234;-75
2023/09/28 04:47:52;;;;;;;11.80;10.70;;;;;;;15.64;88.23;100831.34;5035052;28;20207;-75
2023/09/28 04:50:21;;;;;;;11.07;9.93;;;;;;;15.67;88.14;100836.38;5034991;28;20207;-75
2023/09/28 04:52:49;;;;;;;11.87;10.50;;;;;;;15.64;87.88;100842.16;5034859;28;20302;-75
2023/09/28 04:55:18;;;;;;;12.57;11.00;;;;;;;15.67;87.71;100841.75;5034813;28;20242;-75
2023/09/28 04:57:46;;;;;;;11.23;10.23;;;;;;;15.66;88.97;100840.06;5034841;28;20206;-75
2023/09/28 05:00:16;;;;;;;13.73;10.10;;;;;;;15.70;88.74;100844.06;5035106;28;20246;-75
2023/09/28 05:02:46;;;;;;;11.47;10.37;;;;;;;15.65;89.06;100843.78;5034692;28;20207;-75
2023/09/28 05:05:16;;;;;;;12.03;10.83;;;;;;;15.64;88.74;100850.25;5034259;28;20584;-75
2023/09/28 05:07:45;;;;;;;11.57;10.27;;;;;;;15.64;88.26;100852.09;5034382;28;20510;-75
2023/09/28 05:10:13;;;;;;;11.97;10.63;;;;;;;15.63;88.85;100851.25;5034607;28;20237;-75
2023/09/28 05:12:42;;;;;;;14.20;11.07;;;;;;;15.64;88.10;100852.94;5034519;28;20217;-75
2023/09/28 05:15:13;;;;;;;11.83;10.63;;;;;;;15.65;87.84;100859.19;5034317;28;20329;-75
2023/09/28 05:17:42;;;;;;;13.00;10.43;;;;;;;15.61;88.53;100861.41;5034431;28;20676;-75
2023/09/28 05:20:11;;;;;;;11.57;10.43;;;;;;;15.66;87.89;100866.22;5034103;28;20665;-75
2023/09/28 05:22:43;;;;;;;12.80;10.70;;;;;;;15.61;87.72;100864.13;5034187;28;20218;-75
2023/09/28 05:25:11;;;;;;;13.40;10.97;;;;;;;15.60;89.00;100870.53;5033982;28;20273;-75
2023/09/28 05:27:40;;;;;;;15.77;11.57;;;;;;;15.56;88.19;100871.09;5034268;28;20234;-75
2023/09/28 05:30:10;;;;;;;13.00;10.90;;;;;;;15.59;88.95;100859.91;5033910;28;20552;-75
2023/09/28 05:32:38;;;;;;;13.20;11.03;;;;;;;15.62;87.81;100860.38;5033880;28;20206;-75
2023/09/28 05:35:08;;;;;;;14.07;10.97;;;;;;;15.60;87.27;100861.59;5034014;28;20231;-75
2023/09/28 05:37:36;;;;;;;17.40;11.03;;;;;;;15.60;87.89;100867.84;5034096;28;20207;-75
2023/09/28 05:40:07;;;;;;;14.20;10.73;;;;;;;15.66;87.57;100867.06;5034044;28;20301;-75
2023/09/28 05:42:36;;;;;;;16.73;11.20;;;;;;;15.64;87.43;100873.69;5033738;28;20656;-75
2023/09/28 05:45:05;;;;;;;13.43;10.67;;;;;;;15.61;88.23;100874.06;5033972;28;20335;-75
2023/09/28 05:47:34;;;;;;;13.40;10.70;;;;;;;15.61;88.30;100884.88;5033636;28;20210;-75
2023/09/28 05:50:05;;;;;;;16.27;11.27;;;;;;;15.57;88.71;100887.09;5033918;28;20210;-75
2023/09/28 05:52:33;;;;;;;14.93;11.10;;;;;;;15.54;88.76;100884.78;5033550;28;20641;-75
2023/09/28 05:55:02;;;;;;;12.00;10.80;;;;;;;15.54;88.79;100884.78;5033355;28;20803;-72
2023/09/28 05:57:32;;;;;;;16.50;11.13;;;;;;;15.56;88.99;100895.38;5033425;28;20732;-74
2023/09/28 06:00:00;;;;;;;12.60;11.30;;;;;;;15.58;89.19;100902.25;5033710;28;20297;-74
2023/09/28 06:02:29;;;;;;;13.13;10.77;;;;;;;15.59;88.87;100906.63;5033640;28;20284;-74
2023/09/28 06:04:57;;;;;;;11.87;10.17;;;;;;;15.62;89.55;100908.94;5033593;28;20230;-75
2023/09/28 06:07:26;;;;;;;14.17;11.27;;;;;;;15.65;89.19;100911.28;5033525;28;20205;-75
2023/09/28 06:09:54;;;;;;;12.33;10.90;;;;;;;15.68;89.85;100907.38;5033194;28;20656;-75
2023/09/28 06:12:23;;;;;;;16.23;11.50;;;;;;;15.71;89.88;100915.94;5033199;28;20575;-75
2023/09/28 06:14:53;;;;;;;17.70;12.33;;;;;;;15.73;90.34;100919.28;5033088;28;20596;-75
2023/09/28 06:17:21;;;;;;;16.63;11.47;;;;;;;15.76;90.87;100920.75;5033383;28;20258;-75
2023/09/28 06:19:50;;;;;;;14.73;11.77;;;;;;;15.78;91.21;100923.28;5033463;28;20238;-75
2023/09/28 06:22:25;;;;;;;14.30;11.93;;;;;;;15.81;91.08;100929.13;5033378;28;20278;-75
2023/09/28 06:24:55;;;;;;;13.30;11.67;;;;;;;15.84;91.27;100931.44;5033172;28;20238;-74
2023/09/28 06:27:28;;;;;;;13.80;11.30;;;;;;;15.86;91.30;100923.13;5034140;28;20281;-74
2023/09/28 06:29:58;;;;;;;12.43;9.97;;;;;;;15.88;90.67;100930.03;5033371;28;20200;-74
2023/09/28 06:32:27;;;;;;;12.70;10.70;;;;;;;15.91;91.01;100934.22;5033306;28;20294;-74
2023/09/28 06:34:55;;;;;;;11.87;10.60;;;;;;;15.94;91.09;100929.28;5036064;28;20226;-74
2023/09/28 06:37:24;;;;;;;15.60;10.10;;;;;;;15.97;91.82;100936.16;5037029;28;20231;-74
2023/09/28 06:39:52;;;;;;;15.43;9.57;;;;;;;16.02;91.72;100939.13;5037403;28;20230;-74
2023/09/28 06:42:21;;;;;;;12.77;9.60;;;;;;;16.05;92.07;100939.59;5037354;28;20257;-74
2023/09/28 06:45:07;;;;;;;14.63;9.83;;;;;;;16.09;92.32;100942.75;5037249;28;20237;-74
2023/09/28 06:47:36;;;;;;;11.23;9.93;;;;;;;16.12;92.25;100947.75;5037265;28;20265;-75
2023/09/28 06:50:25;;;;;;;14.00;9.50;;;;;;;16.14;92.25;100949.22;5037237;28;20195;-75
2023/09/28 06:52:54;;;;;;;11.07;9.97;;;;;;;16.20;92.72;100950.31;5037111;28;20241;-74
2023/09/28 06:55:23;;;;;;;10.37;9.23;;;;;;;16.22;92.51;100953.69;5037082;28;20206;-74
2023/09/28 06:57:52;;;;;;;21.93;10.13;;;;;;;16.28;92.27;100958.31;5036979;28;20230;-74
2023/09/28 07:00:22;;;;;;;13.10;9.83;;;;;;;16.32;92.61;100965.00;5036930;28;20669;-74
2023/09/28 07:02:51;;;;;;;10.53;9.40;;;;;;;16.36;92.65;100969.00;5036911;28;20209;-74
2023/09/28 07:05:20;;;;;;;11.07;9.47;;;;;;;16.39;92.50;100971.31;5036605;28;20692;-74
2023/09/28 07:07:49;;;;;;;9.97;8.97;;;;;;;16.46;91.67;100966.81;5036859;28;20238;-75
2023/09/28 07:10:17;;;;;;;10.33;9.20;;;;;;;16.46;92.96;100976.78;5036830;28;20238;-75
2023/09/28 07:12:47;;;;;;;9.73;8.73;;;;;;;16.48;92.48;100978.25;5036469;28;20691;-75
2023/09/28 07:15:16;;;;;;;13.40;8.93;;;;;;;16.51;92.03;100980.56;5036403;28;20207;-75
2023/09/28 07:17:46;;;;;;;10.00;9.00;;;;;;;16.50;92.47;100970.81;5036602;28;20231;-75
2023/09/28 07:20:15;;;;;;;10.23;8.87;;;;;;;16.51;92.26;100979.72;5036604;28;20229;-75
2023/09/28 07:22:44;;;;;;;13.33;9.53;;;;;;;16.56;91.64;100993.56;5036529;28;20253;-75
2023/09/28 07:25:12;;;;;;;11.40;9.53;;;;;;;16.58;91.71;100994.19;5036576;28;20237;-68
2023/09/28 07:27:42;;;;;;;11.40;8.97;;;;;;;16.58;92.95;100992.31;5036109;28;20740;-77
2023/09/28 07:30:12;;;;;;;9.90;8.80;;;;;;;16.60;92.59;100994.84;5036492;28;20195;-76
2023/09/28 07:32:41;;;;;;;10.03;8.97;;;;;;;16.62;92.93;100988.22;5036457;28;20207;-77
2023/09/28 07:35:11;;;;;;;11.67;8.90;;;;;;;16.63;92.95;100989.91;5036325;28;20229;-76
2023/09/28 07:37:40;;;;;;;12.20;9.00;;;;;;;16.67;93.42;101002.00;5036931;28;20229;-76
2023/09/28 07:40:12;;;;;;;9.73;8.07;;;;;;;16.67;93.66;100991.19;5036268;28;20302;-76
2023/09/28 07:42:41;;;;;;;10.97;9.40;;;;;;;16.72;94.29;100996.00;5036343;28;20238;-76
2023/09/28 07:45:11;;;;;;;12.70;8.87;;;;;;;16.75;93.74;100992.09;5036141;28;20227;-77
2023/09/28 07:47:39;;;;;;;9.23;8.10;;;;;;;16.81;93.78;101004.81;5036230;28;20250;-77
2023/09/28 07:50:14;;;;;;;9.10;8.13;;;;;;;16.87;93.44;101004.03;5036124;28;20289;-77
2023/09/28 07:52:44;;;;;;;9.53;8.53;;;;;;;16.93;93.75;100989.72;5035854;28;20186;-77
2023/09/28 07:55:14;;;;;;;9.63;8.60;;;;;;;16.98;92.63;101006.22;5036018;28;20233;-77
2023/09/28 07:57:43;;;;;;;8.83;8.03;;;;;;;17.09;92.41;101011.06;5035943;28;20265;-77
2023/09/28 08:00:17;;;;;;;12.13;8.70;;;;;;;17.29;91.05;101017.50;5036082;28;20198;-77
2023/09/28 08:02:46;;;;;;;11.03;8.67;;;;;;;17.30;92.18;101008.31;5035948;28;20209;-77
2023/09/28 08:05:16;;;;;;;11.37;8.70;;;;;;;17.38;91.96;101015.47;5036142;28;20207;-77
2023/09/28 08:07:44;;;;;;;9.80;8.07;;;;;;;17.53;89.88;101024.31;5035815;28;20203;-77
2023/09/28 08:10:32;;;;;;;11.37;7.90;;;;;;;17.83;87.59;101033.06;5036396;28;20197;-77
2023/09/28 08:13:01;;;;;;;9.53;7.90;;;;;;;17.86;88.13;101030.78;5035563;28;20294;-77
2023/09/28 08:15:30;;;;;;;9.10;7.70;;;;;;;18.01;86.11;101038.78;5035612;28;20301;-77
2023/09/28 08:18:05;;;;;;;11.17;7.50;;;;;;;18.12;83.83;101041.75;5035292;28;20576;-77
2023/09/28 08:20:35;;;;;;;9.80;7.43;;;;;;;18.23;82.84;101032.19;5035559;28;20290;-77
2023/09/28 08:23:05;;;;;;;9.27;7.30;;;;;;;18.36;82.64;101037.66;5035314;28;20277;-77
2023/09/28 08:25:35;;;;;;;9.33;6.77;;;;;;;18.41;82.51;101046.03;5035494;28;20195;-77
2023/09/28 08:28:04;;;;;;;9.70;7.07;;;;;;;18.55;81.19;101047.78;5035476;28;20202;-76
2023/09/28 08:30:32;;;;;;;8.63;6.90;;;;;;;18.74;79.68;101046.97;5035333;28;20238;-76
2023/09/28 08:33:01;;;;;;;12.50;6.70;;;;;;;18.81;80.12;101051.56;5035306;28;20297;-76
2023/09/28 08:35:30;;;;;;;10.20;7.13;;;;;;;18.86;79.53;101055.34;5035822;28;20286;-76
2023/09/28 08:38:01;;;;;;;11.13;6.67;;;;;;;18.90;78.99;101061.19;5036444;28;20241;-75
2023/09/28 08:40:30;;;;;;;9.30;6.93;;;;;;;19.05;77.69;101059.09;5036408;28;20203;-76
2023/09/28 08:43:05;;;;;;;8.07;6.47;;;;;;;19.15;77.82;101052.22;5035567;28;20241;-75
2023/09/28 08:45:34;;;;;;;7.47;6.77;;;;;;;19.21;77.86;101053.28;5035226;28;20202;-76
2023/09/28 08:48:06;;;;;;;11.20;7.27;;;;;;;19.26;76.82;101061.63;5034746;28;20619;-76
2023/09/28 08:50:40;;;;;;;10.90;6.70;;;;;;;19.41;76.92;101051.41;5035052;28;20285;-76
2023/09/28 08:53:10;;;;;;;8.17;6.40;;;;;;;19.51;75.40;101049.09;5034955;28;20253;-76
2023/09/28 08:55:39;;;;;;;10.07;6.73;;;;;;;19.63;74.42;101039.25;5034884;28;20198;-76
2023/09/28 08:58:11;;;;;;;9.47;5.73;;;;;;;19.78;73.57;101049.06;5034188;28;20258;-76
2023/09/28 09:00:40;;;;;;;8.77;6.07;;;;;;;19.87;74.02;101053.19;5034735;28;20217;-76
2023/09/28 09:03:09;;;;;;;9.90;6.07;;;;;;;19.90;73.77;101047.34;5034884;28;20211;-76
2023/09/28 09:05:41;;;;;;;6.47;5.83;;;;;;;19.96;74.44;101051.94;5034585;28;20206;-76
2023/09/28 09:08:12;;;;;;;7.23;5.77;;;;;;;19.95;75.88;101061.97;5034622;28;20195;-75
2023/09/28 09:10:42;;;;;;;9.47;6.00;;;;;;;20.02;75.40;101064.66;5034304;28;20699;-77
2023/09/28 09:13:17;;;;;;;8.13;5.53;;;;;;;20.00;76.57;101066.78;5034429;28;20265;-77
2023/09/28 09:15:46;;;;;;;7.53;5.80;;;;;;;20.06;75.87;101069.47;5034486;28;20191;-77
2023/09/28 09:18:21;;;;;;;7.60;5.13;;;;;;;20.17;75.37;101076.13;5034124;28;20759;-77
2023/09/28 09:20:51;;;;;;;6.63;4.53;;;;;;;20.46;72.25;101067.44;5034150;28;20297;-77
2023/09/28 09:23:22;;;;;;;8.90;5.07;;;;;;;20.52;72.64;101068.44;5033881;28;20273;-77
2023/09/28 09:25:53;;;;;;;7.77;4.30;;;;;;;20.69;70.35;101075.88;5034309;28;20264;-77
2023/09/28 09:28:32;;;;;;;6.67;4.40;;;;;;;20.76;71.47;101075.84;5034357;28;20217;-77
2023/09/28 09:31:01;;;;;;;7.33;5.40;;;;;;;20.84;70.27;101075.59;5034320;28;20194;-77
2023/09/28 09:33:30;;;;;;;6.83;4.53;;;;;;;20.84;71.23;101074.75;5034146;28;20230;-77
2023/09/28 09:35:59;;;;;;;7.13;4.87;;;;;;;20.78;71.92;101073.75;5033975;28;20673;-77
2023/09/28 09:38:31;;;;;;;8.20;4.93;;;;;;;20.87;71.58;101083.31;5034328;28;20254;-76
2023/09/28 09:41:00;;;;;;;5.13;4.20;;;;;;;21.08;69.51;101076.69;5034141;28;20191;-76
2023/09/28 09:43:34;;;;;;;7.63;5.10;;;;;;;21.10;70.18;101069.16;5033965;28;20258;-76
2023/09/28 09:46:06;;;;;;;6.37;4.80;;;;;;;21.38;67.65;101074.16;5034653;28;20202;-76
2023/09/28 09:48:40;;;;;;;10.30;5.60;;;;;;;21.49;67.00;101076.16;5034476;28;20190;-76
2023/09/28 09:51:12;;;;;;;8.03;5.27;;;;;;;21.49;67.68;101071.53;5034005;28;20244;-76
2023/09/28 09:53:43;;;;;;;8.07;5.30;;;;;;;21.65;66.74;101062.78;5033524;28;20273;-76
2023/09/28 09:56:13;;;;;;;8.33;4.90;;;;;;;21.83;66.39;101061.13;5033571;28;20237;-76
2023/09/28 09:58:47;;;;;;;10.07;4.87;;;;;;;21.96;66.34;101061.03;5033750;28;20219;-76
2023/09/28 10:01:17;;;;;;;9.20;5.50;;;;;;;22.04;65.82;101071.63;5033821;28;20206;-76
2023/09/28 10:03:50;;;;;;;5.73;4.40;;;;;;;22.07;65.54;101073.91;5033422;28;20231;-76
2023/09/28 10:06:21;;;;;;;7.47;5.00;;;;;;;22.23;65.13;101073.28;5033718;28;20190;-76
2023/09/28 10:08:53;;;;;;;11.73;5.00;;;;;;;22.29;64.04;101061.47;5033095;28;20199;-76
2023/09/28 10:11:24;;;;;;;9.57;5.40;;;;;;;22.30;63.13;101074.03;5033670;28;20294;-76
2023/09/28 10:13:53;;;;;;;6.90;4.90;;;;;;;22.42;64.05;101072.22;5033531;28;20234;-76
2023/09/28 10:16:22;;;;;;;8.07;4.07;;;;;;;22.37;63.50;101074.78;5033231;28;20759;-76
2023/09/28 10:18:53;;;;;;;7.70;4.60;;;;;;;22.49;62.32;101083.88;5033458;28;20226;-76
2023/09/28 10:21:25;;;;;;;6.27;4.40;;;;;;;22.48;64.39;101075.91;5033562;28;20222;-76
2023/09/28 10:23:57;;;;;;;4.80;4.07;;;;;;;22.52;63.57;101080.69;5032951;28;20246;-76
2023/09/28 10:26:31;;;;;;;5.13;4.20;;;;;;;22.66;62.46;101084.06;5033490;28;20249;-76
2023/09/28 10:29:04;;;;;;;5.90;4.47;;;;;;;22.61;63.83;101082.03;5033410;28;20282;-76
2023/09/28 10:31:34;;;;;;;6.77;4.70;;;;;;;22.70;61.43;101088.88;5033446;28;20194;-76
2023/09/28 10:34:24;;;;;;;9.67;4.77;;;;;;;22.79;63.27;101085.81;5033726;28;20226;-76
2023/09/28 10:37:19;;;;;;;8.07;4.90;;;;;;;22.88;61.35;101101.63;5033018;28;20650;-76
2023/09/28 10:39:56;;;;;;;5.40;4.30;;;;;;;22.94;62.43;101092.53;5032941;28;20234;-76
2023/09/28 10:42:26;;;;;;;7.83;4.50;;;;;;;23.09;59.70;101094.78;5033375;28;20194;-76
2023/09/28 10:44:56;;;;;;;9.53;4.10;;;;;;;23.13;59.67;101096.00;5033217;28;20230;-76
2023/09/28 10:47:25;;;;;;;7.03;3.97;;;;;;;23.15;61.67;101096.63;5033286;28;20191;-77
2023/09/28 10:50:00;;;;;;;7.33;4.03;;;;;;;23.21;60.48;101092.94;5033229;28;20202;-77
2023/09/28 10:52:30;;;;;;;7.57;4.40;;;;;;;23.28;61.04;101099.13;5033276;28;20611;-76
2023/09/28 10:55:00;;;;;;;6.60;4.43;;;;;;;23.41;59.56;101101.66;5034042;28;20222;-76
2023/09/28 10:57:30;;;;;;;6.57;4.27;;;;;;;23.53;59.97;101091.56;5032847;28;20645;-76
2023/09/28 11:00:09;;;;;;;5.70;4.20;;;;;;;23.59;59.80;101101.56;5033089;28;20788;-76
2023/09/28 11:02:37;;;;;;;7.67;4.47;;;;;;;23.64;60.88;101088.00;5033137;28;20286;-76
2023/09/28 11:05:08;;;;;;;5.90;4.13;;;;;;;23.69;59.29;101082.69;5033031;28;20233;-76
2023/09/28 11:07:40;;;;;;;14.77;5.00;;;;;;;23.79;59.86;101078.50;5032757;28;20612;-76
2023/09/28 11:10:11;;;;;;;9.83;4.50;;;;;;;23.84;58.38;101076.72;5033082;28;20191;-76
2023/09/28 11:12:41;;;;;;;9.87;4.67;;;;;;;23.87;59.61;101076.22;5033097;28;20191;-76
2023/09/28 11:15:14;;;;;;;6.73;4.60;;;;;;;23.97;58.54;101070.16;5032941;28;20662;-76
2023/09/28 11:17:43;;;;;;;7.40;4.80;;;;;;;24.03;58.06;101069.19;5033147;28;20199;-76
2023/09/28 11:20:12;;;;;;;6.77;4.73;;;;;;;24.07;57.14;101075.84;5034478;28;20237;-76
2023/09/28 11:22:41;;;;;;;5.17;4.63;;;;;;;24.15;59.11;101070.88;5036697;28;20234;-76
2023/09/28 11:25:12;;;;;;;7.43;4.60;;;;;;;24.27;58.79;101072.75;5036675;28;20339;-75
2023/09/28 11:27:50;;;;;;;7.70;4.43;;;;;;;24.33;58.20;101060.81;5037382;28;20198;-76
2023/09/28 11:30:20;;;;;;;7.13;4.30;;;;;;;24.43;58.73;101064.59;5036558;28;20290;-76
2023/09/28 11:32:50;;;;;;;5.77;4.50;;;;;;;24.48;57.02;101063.88;5036855;28;20215;-76